createdAt,value
2016-11-02T00:00:05.926Z,1013.98
2016-11-02T00:00:15.920Z,1013.94
2016-11-02T00:00:25.916Z,1013.97
2016-11-02T00:00:35.907Z,1013.93
2016-11-02T00:00:45.904Z,1013.92
2016-11-02T00:00:55.897Z,1013.94
2016-11-02T00:01:05.889Z,1013.95
2016-11-02T00:01:15.885Z,1013.9
2016-11-02T00:01:25.879Z,1013.86
2016-11-02T00:01:35.874Z,1013.95
2016-11-02T00:01:46.225Z,1013.9
2016-11-02T00:01:55.862Z,1013.86
2016-11-02T00:02:05.855Z,1013.9
2016-11-02T00:02:15.849Z,1013.88
2016-11-02T00:02:25.843Z,1013.94
2016-11-02T00:02:35.863Z,1013.88
2016-11-02T00:02:45.832Z,1013.92
2016-11-02T00:02:55.826Z,1013.94
2016-11-02T00:03:05.821Z,1013.88
2016-11-02T00:03:15.813Z,1013.9
2016-11-02T00:03:25.810Z,1013.94
2016-11-02T00:03:35.802Z,1013.95
2016-11-02T00:03:45.799Z,1013.88
2016-11-02T00:03:55.791Z,1013.89
2016-11-02T00:04:05.785Z,1013.9
2016-11-02T00:04:15.779Z,1013.91
2016-11-02T00:04:25.774Z,1013.89
2016-11-02T00:04:35.768Z,1013.92
2016-11-02T00:04:45.764Z,1013.89
2016-11-02T00:04:55.755Z,1013.9
2016-11-02T00:05:05.751Z,1013.89
2016-11-02T00:05:15.746Z,1013.9
2016-11-02T00:05:25.740Z,1013.84
2016-11-02T00:05:35.732Z,1013.87
2016-11-02T00:05:45.727Z,1013.87
2016-11-02T00:05:55.721Z,1013.93
2016-11-02T00:06:05.716Z,1013.83
2016-11-02T00:06:15.708Z,1013.88
2016-11-02T00:06:25.702Z,1013.88
2016-11-02T00:06:35.697Z,1013.88
2016-11-02T00:06:45.691Z,1013.89
2016-11-02T00:06:55.686Z,1013.91
2016-11-02T00:07:05.681Z,1013.91
2016-11-02T00:07:15.672Z,1013.89
2016-11-02T00:07:25.667Z,1013.88
2016-11-02T00:07:35.771Z,1013.92
2016-11-02T00:07:45.760Z,1013.87
2016-11-02T00:07:55.652Z,1013.91
2016-11-02T00:08:05.645Z,1013.86
2016-11-02T00:08:15.639Z,1013.83
2016-11-02T00:08:25.661Z,1013.89
2016-11-02T00:08:35.627Z,1013.88
2016-11-02T00:08:45.622Z,1013.9
2016-11-02T00:08:55.616Z,1013.93
2016-11-02T00:09:05.644Z,1013.92
2016-11-02T00:09:15.604Z,1013.93
2016-11-02T00:09:25.596Z,1013.87
2016-11-02T00:09:35.611Z,1013.91
2016-11-02T00:09:45.586Z,1013.87
2016-11-02T00:09:55.578Z,1013.85
2016-11-02T00:10:05.575Z,1013.85
2016-11-02T00:10:15.669Z,1013.87
2016-11-02T00:10:25.563Z,1013.88
2016-11-02T00:10:35.555Z,1013.85
2016-11-02T00:10:45.551Z,1013.88
2016-11-02T00:10:55.544Z,1013.87
2016-11-02T00:11:05.540Z,1013.86
2016-11-02T00:11:15.533Z,1013.87
2016-11-02T00:11:25.527Z,1013.84
2016-11-02T00:11:35.521Z,1013.91
2016-11-02T00:11:45.515Z,1013.83
2016-11-02T00:11:55.510Z,1013.84
2016-11-02T00:12:05.533Z,1013.85
2016-11-02T00:12:15.497Z,1013.88
2016-11-02T00:12:25.492Z,1013.93
2016-11-02T00:12:35.486Z,1013.82
2016-11-02T00:12:45.481Z,1013.88
2016-11-02T00:12:55.473Z,1013.87
2016-11-02T00:13:05.467Z,1013.84
2016-11-02T00:13:15.462Z,1013.85
2016-11-02T00:13:25.457Z,1013.9
2016-11-02T00:13:35.479Z,1013.86
2016-11-02T00:13:45.446Z,1013.9
2016-11-02T00:13:55.439Z,1013.84
2016-11-02T00:14:05.433Z,1013.89
2016-11-02T00:14:15.428Z,1013.84
2016-11-02T00:14:25.421Z,1013.84
2016-11-02T00:14:35.415Z,1013.86
2016-11-02T00:14:45.409Z,1013.82
2016-11-02T00:14:55.403Z,1013.86
2016-11-02T00:15:05.399Z,1013.86
2016-11-02T00:15:15.392Z,1013.85
2016-11-02T00:15:25.387Z,1013.83
2016-11-02T00:15:35.378Z,1013.84
2016-11-02T00:15:45.375Z,1013.87
2016-11-02T00:15:55.369Z,1013.84
2016-11-02T00:16:05.362Z,1013.85
2016-11-02T00:16:15.356Z,1013.85
2016-11-02T00:16:25.352Z,1013.82
2016-11-02T00:16:35.344Z,1013.88
2016-11-02T00:16:45.340Z,1013.81
2016-11-02T00:16:55.331Z,1013.81
2016-11-02T00:17:05.327Z,1013.86
2016-11-02T00:17:15.428Z,1013.82
2016-11-02T00:17:25.315Z,1013.83
2016-11-02T00:17:35.309Z,1013.89
2016-11-02T00:17:45.304Z,1013.86
2016-11-02T00:17:55.297Z,1013.8
2016-11-02T00:18:05.292Z,1013.88
2016-11-02T00:18:15.286Z,1013.84
2016-11-02T00:18:25.281Z,1013.89
2016-11-02T00:18:35.274Z,1013.8
2016-11-02T00:18:45.267Z,1013.84
2016-11-02T00:18:55.263Z,1013.91
2016-11-02T00:19:05.257Z,1013.84
2016-11-02T00:19:15.250Z,1013.85
2016-11-02T00:19:25.246Z,1013.8
2016-11-02T00:19:35.239Z,1013.82
2016-11-02T00:19:45.233Z,1013.85
2016-11-02T00:19:55.226Z,1013.79
2016-11-02T00:20:05.219Z,1013.89
2016-11-02T00:20:15.216Z,1013.88
2016-11-02T00:20:25.211Z,1013.85
2016-11-02T00:20:35.225Z,1013.85
2016-11-02T00:20:45.197Z,1013.8
2016-11-02T00:20:55.191Z,1013.85
2016-11-02T00:21:05.185Z,1013.85
2016-11-02T00:21:15.179Z,1013.86
2016-11-02T00:21:25.175Z,1013.84
2016-11-02T00:21:35.169Z,1013.9
2016-11-02T00:21:45.165Z,1013.82
2016-11-02T00:21:55.156Z,1013.82
2016-11-02T00:22:05.151Z,1013.83
2016-11-02T00:22:15.144Z,1013.81
2016-11-02T00:22:25.139Z,1013.89
2016-11-02T00:22:35.133Z,1013.85
2016-11-02T00:22:45.128Z,1013.8
2016-11-02T00:22:55.122Z,1013.86
2016-11-02T00:23:05.117Z,1013.81
2016-11-02T00:23:15.110Z,1013.81
2016-11-02T00:23:25.104Z,1013.83
2016-11-02T00:23:35.097Z,1013.84
2016-11-02T00:23:45.091Z,1013.82
2016-11-02T00:23:55.189Z,1013.85
2016-11-02T00:24:05.080Z,1013.83
2016-11-02T00:24:15.074Z,1013.82
2016-11-02T00:24:25.069Z,1013.83
2016-11-02T00:24:35.063Z,1013.79
2016-11-02T00:24:45.056Z,1013.86
2016-11-02T00:24:55.051Z,1013.82
2016-11-02T00:25:05.151Z,1013.85
2016-11-02T00:25:15.039Z,1013.78
2016-11-02T00:25:25.033Z,1013.83
2016-11-02T00:25:35.026Z,1013.84
2016-11-02T00:25:45.022Z,1013.8
2016-11-02T00:25:55.016Z,1013.85
2016-11-02T00:26:05.010Z,1013.84
2016-11-02T00:26:15.002Z,1013.82
2016-11-02T00:26:25.033Z,1013.8
2016-11-02T00:26:34.993Z,1013.81
2016-11-02T00:26:44.986Z,1013.86
2016-11-02T00:26:54.980Z,1013.84
2016-11-02T00:27:04.975Z,1013.84
2016-11-02T00:27:14.968Z,1013.78
2016-11-02T00:27:24.961Z,1013.84
2016-11-02T00:27:34.956Z,1013.81
2016-11-02T00:27:44.951Z,1013.84
2016-11-02T00:27:54.945Z,1013.84
2016-11-02T00:28:04.939Z,1013.78
2016-11-02T00:28:14.933Z,1013.79
2016-11-02T00:28:24.928Z,1013.87
2016-11-02T00:28:34.921Z,1013.84
2016-11-02T00:28:44.915Z,1013.86
2016-11-02T00:28:54.909Z,1013.87
2016-11-02T00:29:04.904Z,1013.81
2016-11-02T00:29:14.898Z,1013.78
2016-11-02T00:29:24.891Z,1013.79
2016-11-02T00:29:34.886Z,1013.81
2016-11-02T00:29:44.902Z,1013.83
2016-11-02T00:29:54.875Z,1013.82
2016-11-02T00:30:04.869Z,1013.83
2016-11-02T00:30:14.863Z,1013.82
2016-11-02T00:30:24.857Z,1013.86
2016-11-02T00:30:34.850Z,1013.78
2016-11-02T00:30:44.844Z,1013.81
2016-11-02T00:30:54.839Z,1013.82
2016-11-02T00:31:04.834Z,1013.81
2016-11-02T00:31:14.826Z,1013.79
2016-11-02T00:31:24.822Z,1013.76
2016-11-02T00:31:34.816Z,1013.77
2016-11-02T00:31:44.810Z,1013.79
2016-11-02T00:31:54.803Z,1013.86
2016-11-02T00:32:04.797Z,1013.83
2016-11-02T00:32:14.791Z,1013.81
2016-11-02T00:32:24.784Z,1013.8
2016-11-02T00:32:34.779Z,1013.86
2016-11-02T00:32:44.774Z,1013.82
2016-11-02T00:32:54.768Z,1013.81
2016-11-02T00:33:04.763Z,1013.83
2016-11-02T00:33:14.756Z,1013.84
2016-11-02T00:33:24.749Z,1013.83
2016-11-02T00:33:34.745Z,1013.77
2016-11-02T00:33:44.739Z,1013.83
2016-11-02T00:33:54.732Z,1013.8
2016-11-02T00:34:04.727Z,1013.84
2016-11-02T00:34:14.721Z,1013.83
2016-11-02T00:34:24.716Z,1013.84
2016-11-02T00:34:34.708Z,1013.83
2016-11-02T00:34:44.703Z,1013.82
2016-11-02T00:34:54.697Z,1013.8
2016-11-02T00:35:04.692Z,1013.82
2016-11-02T00:35:14.686Z,1013.78
2016-11-02T00:35:24.682Z,1013.83
2016-11-02T00:35:34.673Z,1013.81
2016-11-02T00:35:44.668Z,1013.82
2016-11-02T00:35:54.662Z,1013.8
2016-11-02T00:36:04.657Z,1013.8
2016-11-02T00:36:14.650Z,1013.79
2016-11-02T00:36:24.645Z,1013.78
2016-11-02T00:36:34.665Z,1013.85
2016-11-02T00:36:44.633Z,1013.81
2016-11-02T00:36:54.627Z,1013.86
2016-11-02T00:37:04.621Z,1013.86
2016-11-02T00:37:14.615Z,1013.82
2016-11-02T00:37:24.610Z,1013.82
2016-11-02T00:37:34.603Z,1013.81
2016-11-02T00:37:44.599Z,1013.83
2016-11-02T00:37:54.592Z,1013.79
2016-11-02T00:38:04.610Z,1013.8
2016-11-02T00:38:14.581Z,1013.77
2016-11-02T00:38:24.572Z,1013.79
2016-11-02T00:38:34.586Z,1013.8
2016-11-02T00:38:44.564Z,1013.78
2016-11-02T00:38:54.556Z,1013.85
2016-11-02T00:39:04.552Z,1013.82
2016-11-02T00:39:14.545Z,1013.81
2016-11-02T00:39:24.538Z,1013.81
2016-11-02T00:39:34.531Z,1013.83
2016-11-02T00:39:44.526Z,1013.8
2016-11-02T00:39:54.521Z,1013.8
2016-11-02T00:40:04.543Z,1013.78
2016-11-02T00:40:14.509Z,1013.78
2016-11-02T00:40:24.504Z,1013.84
2016-11-02T00:40:34.496Z,1013.82
2016-11-02T00:40:44.491Z,1013.8
2016-11-02T00:40:54.487Z,1013.82
2016-11-02T00:41:04.480Z,1013.82
2016-11-02T00:41:14.474Z,1013.78
2016-11-02T00:41:24.468Z,1013.84
2016-11-02T00:41:34.462Z,1013.8
2016-11-02T00:41:44.457Z,1013.82
2016-11-02T00:41:54.450Z,1013.82
2016-11-02T00:42:04.450Z,1013.8
2016-11-02T00:42:14.437Z,1013.82
2016-11-02T00:42:24.433Z,1013.8
2016-11-02T00:42:34.427Z,1013.81
2016-11-02T00:42:44.420Z,1013.77
2016-11-02T00:42:54.414Z,1013.81
2016-11-02T00:43:04.410Z,1013.82
2016-11-02T00:43:14.403Z,1013.8
2016-11-02T00:43:24.397Z,1013.8
2016-11-02T00:43:34.390Z,1013.79
2016-11-02T00:43:44.386Z,1013.81
2016-11-02T00:43:54.381Z,1013.8
2016-11-02T00:44:04.372Z,1013.84
2016-11-02T00:44:14.367Z,1013.81
2016-11-02T00:44:24.361Z,1013.8
2016-11-02T00:44:34.355Z,1013.79
2016-11-02T00:44:44.350Z,1013.81
2016-11-02T00:44:54.343Z,1013.78
2016-11-02T00:45:04.338Z,1013.79
2016-11-02T00:45:14.332Z,1013.79
2016-11-02T00:45:24.324Z,1013.79
2016-11-02T00:45:34.343Z,1013.78
2016-11-02T00:45:44.315Z,1013.79
2016-11-02T00:45:54.309Z,1013.77
2016-11-02T00:46:04.302Z,1013.77
2016-11-02T00:46:14.300Z,1013.79
2016-11-02T00:46:24.289Z,1013.73
2016-11-02T00:46:34.285Z,1013.77
2016-11-02T00:46:44.279Z,1013.79
2016-11-02T00:46:54.272Z,1013.78
2016-11-02T00:47:04.267Z,1013.83
2016-11-02T00:47:14.260Z,1013.75
2016-11-02T00:47:24.255Z,1013.73
2016-11-02T00:47:34.246Z,1013.74
2016-11-02T00:47:44.242Z,1013.8
2016-11-02T00:47:54.234Z,1013.72
2016-11-02T00:48:04.230Z,1013.77
2016-11-02T00:48:14.225Z,1013.71
2016-11-02T00:48:24.324Z,1013.75
2016-11-02T00:48:34.211Z,1013.71
2016-11-02T00:48:44.205Z,1013.74
2016-11-02T00:48:54.201Z,1013.75
2016-11-02T00:49:04.194Z,1013.77
2016-11-02T00:49:14.189Z,1013.75
2016-11-02T00:49:24.183Z,1013.76
2016-11-02T00:49:34.176Z,1013.75
2016-11-02T00:49:44.172Z,1013.76
2016-11-02T00:49:54.164Z,1013.77
2016-11-02T00:50:04.158Z,1013.74
2016-11-02T00:50:14.151Z,1013.72
2016-11-02T00:50:24.146Z,1013.74
2016-11-02T00:50:34.143Z,1013.74
2016-11-02T00:50:44.133Z,1013.73
2016-11-02T00:50:54.129Z,1013.7
2016-11-02T00:51:04.123Z,1013.72
2016-11-02T00:51:14.116Z,1013.76
2016-11-02T00:51:24.111Z,1013.69
2016-11-02T00:51:34.149Z,1013.71
2016-11-02T00:51:44.098Z,1013.73
2016-11-02T00:51:54.094Z,1013.75
2016-11-02T00:52:04.088Z,1013.78
2016-11-02T00:52:14.082Z,1013.71
2016-11-02T00:52:24.077Z,1013.72
2016-11-02T00:52:34.070Z,1013.7
2016-11-02T00:52:44.063Z,1013.75
2016-11-02T00:52:54.057Z,1013.7
2016-11-02T00:53:04.051Z,1013.74
2016-11-02T00:53:14.046Z,1013.75
2016-11-02T00:53:24.039Z,1013.77
2016-11-02T00:53:34.034Z,1013.72
2016-11-02T00:53:44.028Z,1013.67
2016-11-02T00:53:54.021Z,1013.65
2016-11-02T00:54:04.016Z,1013.68
2016-11-02T00:54:14.009Z,1013.7
2016-11-02T00:54:24.005Z,1013.71
2016-11-02T00:54:34.333Z,1013.72
2016-11-02T00:54:43.992Z,1013.7
2016-11-02T00:54:53.986Z,1013.71
2016-11-02T00:55:03.980Z,1013.69
2016-11-02T00:55:13.972Z,1013.76
2016-11-02T00:55:23.968Z,1013.71
2016-11-02T00:55:33.962Z,1013.74
2016-11-02T00:55:43.977Z,1013.71
2016-11-02T00:55:53.950Z,1013.71
2016-11-02T00:56:04.279Z,1013.7
2016-11-02T00:56:13.938Z,1013.67
2016-11-02T00:56:23.933Z,1013.72
2016-11-02T00:56:33.926Z,1013.69
2016-11-02T00:56:58.844Z,1013.72
2016-11-02T00:57:00.048Z,1013.73
2016-11-02T00:57:10.020Z,1013.72
2016-11-02T00:57:20.037Z,1013.68
2016-11-02T00:57:30.008Z,1013.75
2016-11-02T00:57:40.002Z,1013.72
2016-11-02T00:57:49.996Z,1013.68
2016-11-02T00:57:59.989Z,1013.69
2016-11-02T00:58:09.982Z,1013.7
2016-11-02T00:58:19.979Z,1013.69
2016-11-02T00:58:29.973Z,1013.72
2016-11-02T00:58:40.068Z,1013.7
2016-11-02T00:58:49.962Z,1013.68
2016-11-02T00:58:59.956Z,1013.7
2016-11-02T00:59:09.947Z,1013.75
2016-11-02T00:59:19.942Z,1013.7
2016-11-02T00:59:29.938Z,1013.67
2016-11-02T00:59:39.932Z,1013.72
2016-11-02T00:59:49.925Z,1013.72
2016-11-02T00:59:59.919Z,1013.65
2016-11-02T01:00:09.914Z,1013.69
2016-11-02T01:00:19.908Z,1013.72
2016-11-02T01:00:29.901Z,1013.73
2016-11-02T01:00:39.896Z,1013.65
2016-11-02T01:00:49.889Z,1013.7
2016-11-02T01:00:59.885Z,1013.67
2016-11-02T01:01:09.877Z,1013.7
2016-11-02T01:01:19.871Z,1013.68
2016-11-02T01:01:29.865Z,1013.67
2016-11-02T01:01:39.861Z,1013.73
2016-11-02T01:01:49.854Z,1013.7
2016-11-02T01:01:59.848Z,1013.66
2016-11-02T01:02:09.841Z,1013.68
2016-11-02T01:02:19.834Z,1013.72
2016-11-02T01:02:29.830Z,1013.7
2016-11-02T01:02:39.824Z,1013.7
2016-11-02T01:02:49.819Z,1013.7
2016-11-02T01:02:59.813Z,1013.7
2016-11-02T01:03:09.806Z,1013.69
2016-11-02T01:03:19.802Z,1013.74
2016-11-02T01:03:29.899Z,1013.65
2016-11-02T01:03:39.789Z,1013.68
2016-11-02T01:03:49.785Z,1013.69
2016-11-02T01:03:59.803Z,1013.69
2016-11-02T01:04:09.771Z,1013.67
2016-11-02T01:04:19.765Z,1013.67
2016-11-02T01:04:29.758Z,1013.62
2016-11-02T01:04:39.753Z,1013.68
2016-11-02T01:04:49.746Z,1013.64
2016-11-02T01:04:59.740Z,1013.74
2016-11-02T01:05:09.736Z,1013.67
2016-11-02T01:05:19.728Z,1013.68
2016-11-02T01:05:29.723Z,1013.69
2016-11-02T01:05:39.718Z,1013.72
2016-11-02T01:05:49.711Z,1013.64
2016-11-02T01:05:59.706Z,1013.66
2016-11-02T01:06:09.699Z,1013.67
2016-11-02T01:06:19.694Z,1013.7
2016-11-02T01:06:29.687Z,1013.72
2016-11-02T01:06:39.682Z,1013.68
2016-11-02T01:06:49.789Z,1013.72
2016-11-02T01:06:59.669Z,1013.68
2016-11-02T01:07:09.689Z,1013.73
2016-11-02T01:07:19.657Z,1013.79
2016-11-02T01:07:29.651Z,1013.77
2016-11-02T01:07:39.647Z,1013.72
2016-11-02T01:07:49.641Z,1013.72
2016-11-02T01:07:59.633Z,1013.76
2016-11-02T01:08:09.627Z,1013.73
2016-11-02T01:08:19.621Z,1013.71
2016-11-02T01:08:29.615Z,1013.76
2016-11-02T01:08:39.609Z,1013.75
2016-11-02T01:08:49.603Z,1013.74
2016-11-02T01:08:59.597Z,1013.72
2016-11-02T01:09:09.592Z,1013.74
2016-11-02T01:09:19.585Z,1013.72
2016-11-02T01:09:29.579Z,1013.74
2016-11-02T01:09:39.577Z,1013.73
2016-11-02T01:09:49.567Z,1013.75
2016-11-02T01:09:59.561Z,1013.81
2016-11-02T01:10:09.555Z,1013.76
2016-11-02T01:10:19.550Z,1013.79
2016-11-02T01:10:29.542Z,1013.76
2016-11-02T01:10:39.539Z,1013.73
2016-11-02T01:10:49.533Z,1013.72
2016-11-02T01:10:59.528Z,1013.76
2016-11-02T01:11:09.544Z,1013.83
2016-11-02T01:11:19.514Z,1013.75
2016-11-02T01:11:29.516Z,1013.82
2016-11-02T01:11:39.501Z,1013.79
2016-11-02T01:11:49.498Z,1013.79
2016-11-02T01:11:59.490Z,1013.82
2016-11-02T01:12:09.504Z,1013.81
2016-11-02T01:12:19.479Z,1013.81
2016-11-02T01:12:29.473Z,1013.75
2016-11-02T01:12:39.466Z,1013.8
2016-11-02T01:12:49.460Z,1013.76
2016-11-02T01:12:59.456Z,1013.8
2016-11-02T01:13:09.450Z,1013.8
2016-11-02T01:13:19.443Z,1013.81
2016-11-02T01:13:29.438Z,1013.81
2016-11-02T01:13:39.456Z,1013.74
2016-11-02T01:13:49.426Z,1013.8
2016-11-02T01:13:59.420Z,1013.86
2016-11-02T01:14:09.412Z,1013.83
2016-11-02T01:14:19.406Z,1013.83
2016-11-02T01:14:29.401Z,1013.87
2016-11-02T01:14:39.395Z,1013.86
2016-11-02T01:14:49.389Z,1013.82
2016-11-02T01:14:59.386Z,1013.82
2016-11-02T01:15:09.377Z,1013.87
2016-11-02T01:15:19.371Z,1013.79
2016-11-02T01:15:29.365Z,1013.84
2016-11-02T01:15:39.358Z,1013.82
2016-11-02T01:15:49.356Z,1013.78
2016-11-02T01:15:59.347Z,1013.8
2016-11-02T01:16:09.341Z,1013.91
2016-11-02T01:16:19.336Z,1013.81
2016-11-02T01:16:29.330Z,1013.83
2016-11-02T01:16:39.324Z,1013.85
2016-11-02T01:16:49.319Z,1013.84
2016-11-02T01:16:59.309Z,1013.84
2016-11-02T01:17:09.305Z,1013.85
2016-11-02T01:17:19.300Z,1013.83
2016-11-02T01:17:29.293Z,1013.84
2016-11-02T01:17:39.287Z,1013.8
2016-11-02T01:17:49.281Z,1013.83
2016-11-02T01:17:59.276Z,1013.81
2016-11-02T01:18:09.268Z,1013.82
2016-11-02T01:18:19.264Z,1013.84
2016-11-02T01:18:29.258Z,1013.85
2016-11-02T01:18:39.252Z,1013.79
2016-11-02T01:18:49.246Z,1013.81
2016-11-02T01:18:59.241Z,1013.79
2016-11-02T01:19:09.236Z,1013.86
2016-11-02T01:19:19.227Z,1013.84
2016-11-02T01:19:29.222Z,1013.84
2016-11-02T01:19:39.216Z,1013.83
2016-11-02T01:19:49.210Z,1013.81
2016-11-02T01:19:59.205Z,1013.78
2016-11-02T01:20:09.198Z,1013.78
2016-11-02T01:20:19.194Z,1013.76
2016-11-02T01:20:29.188Z,1013.81
2016-11-02T01:20:39.180Z,1013.77
2016-11-02T01:20:49.203Z,1013.77
2016-11-02T01:20:59.169Z,1013.78
2016-11-02T01:21:09.164Z,1013.77
2016-11-02T01:21:19.157Z,1013.73
2016-11-02T01:21:29.150Z,1013.75
2016-11-02T01:21:39.164Z,1013.74
2016-11-02T01:21:49.140Z,1013.73
2016-11-02T01:21:59.132Z,1013.73
2016-11-02T01:22:09.128Z,1013.84
2016-11-02T01:22:19.121Z,1013.74
2016-11-02T01:22:29.116Z,1013.74
2016-11-02T01:22:39.109Z,1013.72
2016-11-02T01:22:49.104Z,1013.74
2016-11-02T01:22:59.099Z,1013.72
2016-11-02T01:23:09.093Z,1013.71
2016-11-02T01:23:19.086Z,1013.75
2016-11-02T01:23:29.079Z,1013.72
2016-11-02T01:23:39.074Z,1013.77
2016-11-02T01:23:49.069Z,1013.74
2016-11-02T01:23:59.086Z,1013.77
2016-11-02T01:24:09.057Z,1013.78
2016-11-02T01:24:19.051Z,1013.73
2016-11-02T01:24:29.044Z,1013.74
2016-11-02T01:24:39.040Z,1013.74
2016-11-02T01:24:49.032Z,1013.69
2016-11-02T01:24:59.027Z,1013.73
2016-11-02T01:25:09.021Z,1013.7
2016-11-02T01:25:19.015Z,1013.77
2016-11-02T01:25:29.010Z,1013.72
2016-11-02T01:25:39.004Z,1013.75
2016-11-02T01:25:48.996Z,1013.7
2016-11-02T01:25:58.991Z,1013.73
2016-11-02T01:26:08.986Z,1013.75
2016-11-02T01:26:18.981Z,1013.78
2016-11-02T01:26:28.974Z,1013.76
2016-11-02T01:26:38.967Z,1013.75
2016-11-02T01:26:48.962Z,1013.73
2016-11-02T01:26:58.957Z,1013.73
2016-11-02T01:27:08.948Z,1013.76
2016-11-02T01:27:18.944Z,1013.74
2016-11-02T01:27:28.937Z,1013.77
2016-11-02T01:27:38.933Z,1013.76
2016-11-02T01:27:48.928Z,1013.78
2016-11-02T01:27:58.943Z,1013.76
2016-11-02T01:28:08.915Z,1013.76
2016-11-02T01:28:18.910Z,1013.75
2016-11-02T01:28:28.903Z,1013.73
2016-11-02T01:28:38.895Z,1013.79
2016-11-02T01:28:48.890Z,1013.74
2016-11-02T01:28:58.885Z,1013.74
2016-11-02T01:29:08.879Z,1013.78
2016-11-02T01:29:18.872Z,1013.77
2016-11-02T01:29:28.868Z,1013.82
2016-11-02T01:29:38.865Z,1013.7
2016-11-02T01:29:48.856Z,1013.75
2016-11-02T01:29:58.851Z,1013.8
2016-11-02T01:30:08.843Z,1013.81
2016-11-02T01:30:18.837Z,1013.75
2016-11-02T01:30:28.832Z,1013.78
2016-11-02T01:30:38.825Z,1013.71
2016-11-02T01:30:48.821Z,1013.75
2016-11-02T01:30:58.814Z,1013.77
2016-11-02T01:31:08.809Z,1013.71
2016-11-02T01:31:18.802Z,1013.69
2016-11-02T01:31:28.795Z,1013.77
2016-11-02T01:31:38.789Z,1013.73
2016-11-02T01:31:48.784Z,1013.7
2016-11-02T01:31:58.778Z,1013.71
2016-11-02T01:32:08.772Z,1013.74
2016-11-02T01:32:18.766Z,1013.69
2016-11-02T01:32:28.760Z,1013.67
2016-11-02T01:32:38.755Z,1013.73
2016-11-02T01:32:48.748Z,1013.75
2016-11-02T01:32:58.743Z,1013.75
2016-11-02T01:33:08.737Z,1013.69
2016-11-02T01:33:18.730Z,1013.7
2016-11-02T01:33:28.750Z,1013.67
2016-11-02T01:33:38.720Z,1013.71
2016-11-02T01:33:48.713Z,1013.66
2016-11-02T01:33:58.705Z,1013.7
2016-11-02T01:34:08.701Z,1013.71
2016-11-02T01:34:18.695Z,1013.71
2016-11-02T01:34:28.689Z,1013.7
2016-11-02T01:34:38.683Z,1013.7
2016-11-02T01:34:48.677Z,1013.66
2016-11-02T01:34:58.709Z,1013.67
2016-11-02T01:35:08.665Z,1013.71
2016-11-02T01:35:18.681Z,1013.68
2016-11-02T01:35:28.652Z,1013.73
2016-11-02T01:35:38.649Z,1013.73
2016-11-02T01:35:48.640Z,1013.69
2016-11-02T01:35:58.636Z,1013.69
2016-11-02T01:36:08.629Z,1013.73
2016-11-02T01:36:18.626Z,1013.74
2016-11-02T01:36:28.620Z,1013.77
2016-11-02T01:36:38.614Z,1013.69
2016-11-02T01:36:48.603Z,1013.69
2016-11-02T01:36:58.600Z,1013.7
2016-11-02T01:37:08.594Z,1013.69
2016-11-02T01:37:18.587Z,1013.74
2016-11-02T01:37:28.582Z,1013.68
2016-11-02T01:37:38.578Z,1013.73
2016-11-02T01:37:48.590Z,1013.65
2016-11-02T01:37:58.565Z,1013.69
2016-11-02T01:38:08.559Z,1013.63
2016-11-02T01:38:18.553Z,1013.65
2016-11-02T01:38:28.882Z,1013.71
2016-11-02T01:38:38.541Z,1013.68
2016-11-02T01:38:48.536Z,1013.65
2016-11-02T01:38:58.529Z,1013.65
2016-11-02T01:39:08.524Z,1013.66
2016-11-02T01:39:18.518Z,1013.68
2016-11-02T01:39:28.512Z,1013.64
2016-11-02T01:39:38.507Z,1013.64
2016-11-02T01:39:48.501Z,1013.59
2016-11-02T01:39:58.493Z,1013.64
2016-11-02T01:40:08.488Z,1013.59
2016-11-02T01:40:18.482Z,1013.65
2016-11-02T01:40:28.476Z,1013.66
2016-11-02T01:40:38.472Z,1013.64
2016-11-02T01:40:48.465Z,1013.64
2016-11-02T01:40:58.459Z,1013.63
2016-11-02T01:41:08.452Z,1013.61
2016-11-02T01:41:18.446Z,1013.65
2016-11-02T01:41:28.441Z,1013.6
2016-11-02T01:41:38.436Z,1013.62
2016-11-02T01:41:48.428Z,1013.64
2016-11-02T01:41:58.423Z,1013.63
2016-11-02T01:42:08.417Z,1013.62
2016-11-02T01:42:18.411Z,1013.58
2016-11-02T01:42:28.405Z,1013.62
2016-11-02T01:42:38.400Z,1013.63
2016-11-02T01:42:48.393Z,1013.64
2016-11-02T01:42:58.389Z,1013.6
2016-11-02T01:43:08.380Z,1013.62
2016-11-02T01:43:18.376Z,1013.58
2016-11-02T01:43:28.389Z,1013.59
2016-11-02T01:43:38.467Z,1013.68
2016-11-02T01:43:48.358Z,1013.61
2016-11-02T01:43:58.376Z,1013.61
2016-11-02T01:44:08.346Z,1013.61
2016-11-02T01:44:18.340Z,1013.63
2016-11-02T01:44:28.359Z,1013.6
2016-11-02T01:44:38.329Z,1013.6
2016-11-02T01:44:48.322Z,1013.6
2016-11-02T01:44:58.316Z,1013.61
2016-11-02T01:45:08.311Z,1013.62
2016-11-02T01:45:18.304Z,1013.64
2016-11-02T01:45:28.298Z,1013.59
2016-11-02T01:45:38.293Z,1013.65
2016-11-02T01:45:48.287Z,1013.65
2016-11-02T01:45:58.281Z,1013.63
2016-11-02T01:46:08.301Z,1013.65
2016-11-02T01:46:18.269Z,1013.57
2016-11-02T01:46:28.265Z,1013.57
2016-11-02T01:46:38.257Z,1013.61
2016-11-02T01:46:48.251Z,1013.64
2016-11-02T01:46:58.246Z,1013.59
2016-11-02T01:47:08.238Z,1013.56
2016-11-02T01:47:18.233Z,1013.57
2016-11-02T01:47:28.226Z,1013.61
2016-11-02T01:47:38.221Z,1013.58
2016-11-02T01:47:48.219Z,1013.58
2016-11-02T01:47:58.209Z,1013.55
2016-11-02T01:48:08.203Z,1013.63
2016-11-02T01:48:18.199Z,1013.62
2016-11-02T01:48:28.195Z,1013.6
2016-11-02T01:48:38.187Z,1013.58
2016-11-02T01:48:48.180Z,1013.59
2016-11-02T01:48:58.200Z,1013.59
2016-11-02T01:49:08.168Z,1013.61
2016-11-02T01:49:18.161Z,1013.65
2016-11-02T01:49:28.156Z,1013.61
2016-11-02T01:49:38.150Z,1013.56
2016-11-02T01:49:48.144Z,1013.61
2016-11-02T01:49:58.139Z,1013.59
2016-11-02T01:50:08.132Z,1013.64
2016-11-02T01:50:18.128Z,1013.57
2016-11-02T01:50:28.121Z,1013.59
2016-11-02T01:50:38.115Z,1013.52
2016-11-02T01:50:48.110Z,1013.57
2016-11-02T01:50:58.104Z,1013.56
2016-11-02T01:51:08.097Z,1013.58
2016-11-02T01:51:18.092Z,1013.58
2016-11-02T01:51:28.086Z,1013.58
2016-11-02T01:51:38.080Z,1013.55
2016-11-02T01:51:48.073Z,1013.62
2016-11-02T01:51:58.189Z,1013.6
2016-11-02T01:52:08.061Z,1013.56
2016-11-02T01:52:18.055Z,1013.57
2016-11-02T01:52:28.049Z,1013.55
2016-11-02T01:52:38.044Z,1013.55
2016-11-02T01:52:48.037Z,1013.61
2016-11-02T01:52:58.032Z,1013.55
2016-11-02T01:53:08.025Z,1013.56
2016-11-02T01:53:18.019Z,1013.57
2016-11-02T01:53:28.013Z,1013.54
2016-11-02T01:53:38.009Z,1013.58
2016-11-02T01:53:48.003Z,1013.62
2016-11-02T01:53:57.997Z,1013.56
2016-11-02T01:54:07.990Z,1013.61
2016-11-02T01:54:17.984Z,1013.58
2016-11-02T01:54:27.979Z,1013.6
2016-11-02T01:54:37.972Z,1013.58
2016-11-02T01:54:47.967Z,1013.6
2016-11-02T01:54:57.960Z,1013.58
2016-11-02T01:55:07.954Z,1013.6
2016-11-02T01:55:17.950Z,1013.59
2016-11-02T01:55:27.943Z,1013.64
2016-11-02T01:55:37.936Z,1013.59
2016-11-02T01:55:47.967Z,1013.61
2016-11-02T01:55:57.923Z,1013.54
2016-11-02T01:56:07.918Z,1013.55
2016-11-02T01:56:17.913Z,1013.57
2016-11-02T01:56:27.908Z,1013.58
2016-11-02T01:56:37.902Z,1013.57
2016-11-02T01:56:47.896Z,1013.54
2016-11-02T01:56:57.888Z,1013.59
2016-11-02T01:57:07.883Z,1013.58
2016-11-02T01:57:17.876Z,1013.6
2016-11-02T01:57:27.871Z,1013.57
2016-11-02T01:57:37.865Z,1013.58
2016-11-02T01:57:47.860Z,1013.59
2016-11-02T01:57:57.957Z,1013.64
2016-11-02T01:58:07.849Z,1013.63
2016-11-02T01:58:17.840Z,1013.6
2016-11-02T01:58:27.838Z,1013.58
2016-11-02T01:58:37.829Z,1013.58
2016-11-02T01:58:47.824Z,1013.58
2016-11-02T01:58:57.818Z,1013.55
2016-11-02T01:59:07.812Z,1013.6
2016-11-02T01:59:17.806Z,1013.62
2016-11-02T01:59:27.800Z,1013.6
2016-11-02T01:59:37.794Z,1013.6
2016-11-02T01:59:47.788Z,1013.61
2016-11-02T01:59:57.783Z,1013.6
2016-11-02T02:00:07.777Z,1013.6
2016-11-02T02:00:17.771Z,1013.56
2016-11-02T02:00:27.764Z,1013.61
2016-11-02T02:00:37.759Z,1013.58
2016-11-02T02:00:47.753Z,1013.59
2016-11-02T02:00:57.746Z,1013.57
2016-11-02T02:01:07.741Z,1013.58
2016-11-02T02:01:17.735Z,1013.59
2016-11-02T02:01:27.730Z,1013.52